Argenta, Illinois
Current Conditions -  °F | °C
As of 1:54 AM on Saturday 25 Oct 2014 (Local Time) from KDEC Reporting Station
Overcast Overcast  
Wind Chill: 62°   Ceiling: 5000
Heat Index: 62°   Visibility: 10mi
Dew Point: 53°   Wind: 13mph
Humidity: 72%   Direction: 220°SW
Pressure: 29.96"   Gusts: NA
Location:  39.98°N, 88.82°W
Report Text: KDEC 250654Z AUTO 22011KT 10SM OVC050 17/12 A2996 RMK AO2 SLP142 T01670117 TSNO
Loading
Personal Weather Stations






























Interactive Weather Map
Tropical Storm Tracking
New forecast layout! Learn more

10-Day Weather Forecast

Advertisements
Track Severe Weather on mobile